Time;durP1;ratioP1;P1;durP2;ratioP2;P2;SDS_P1;SDS_P2;PMS_P1;PMS_P2;Temp;Humidity;BMP_temperature;BMP_pressure;BME280_temperature;BME280_humidity;BME280_pressure;Samples;Min_cycle;Max_cycle;Signal;HPM_P1;HPM_P2
2021/10/19 00:01:50;;;;;;;9.85;4.43;;;24.70;96.30;;;;;;5074194;28;20021;-76
2021/10/19 00:04:18;;;;;;;9.48;3.50;;;24.50;97.20;;;;;;5072542;28;20033;-74
2021/10/19 00:06:46;;;;;;;10.82;4.05;;;24.50;97.80;;;;;;5074049;28;20012;-74
2021/10/19 00:09:13;;;;;;;9.55;3.55;;;24.40;97.70;;;;;;5056246;28;20086;-74
2021/10/19 00:11:40;;;;;;;9.80;4.28;;;24.10;98.30;;;;;;5073983;28;20043;-75
2021/10/19 00:14:08;;;;;;;9.75;3.60;;;24.20;98.60;;;;;;5073841;28;20099;-74
2021/10/19 00:16:35;;;;;;;11.60;3.90;;;24.20;99.00;;;;;;5072339;28;20036;-75
2021/10/19 00:19:04;;;;;;;10.63;3.95;;;24.40;99.10;;;;;;5073817;28;20030;-74
2021/10/19 00:21:32;;;;;;;14.85;3.70;;;24.70;98.50;;;;;;5072167;28;20021;-75
2021/10/19 00:23:59;;;;;;;8.95;3.45;;;24.90;97.80;;;;;;5072083;28;20469;-75
2021/10/19 00:26:26;;;;;;;8.50;3.45;;;24.80;98.50;;;;;;5072425;28;20017;-75
2021/10/19 00:28:54;;;;;;;10.35;3.22;;;24.90;98.00;;;;;;5073545;28;20021;-75
2021/10/19 00:31:21;;;;;;;7.68;3.67;;;25.00;98.40;;;;;;5072264;28;20021;-75
2021/10/19 00:33:50;;;;;;;9.48;3.75;;;25.00;97.50;;;;;;5072286;28;20123;-75
2021/10/19 00:36:17;;;;;;;9.65;3.53;;;25.00;98.10;;;;;;5073500;28;20017;-75
2021/10/19 00:38:45;;;;;;;10.60;3.60;;;25.10;97.40;;;;;;5073367;28;20021;-75
2021/10/19 00:41:12;;;;;;;7.15;3.20;;;25.30;96.40;;;;;;5072060;28;20394;-75
2021/10/19 00:43:41;;;;;;;6.03;3.15;;;24.90;97.10;;;;;;5072026;28;20039;-75
2021/10/19 00:46:12;;;;;;;11.20;3.95;;;25.00;96.80;;;;;;5073304;28;20029;-75
2021/10/19 00:48:40;;;;;;;12.98;3.83;;;25.00;98.00;;;;;;5072014;28;20028;-75
2021/10/19 00:51:09;;;;;;;9.07;4.03;;;24.70;98.50;;;;;;5073192;28;20054;-75
2021/10/19 00:53:37;;;;;;;11.20;3.80;;;25.00;98.50;;;;;;5071925;28;20371;-75
2021/10/19 00:56:06;;;;;;;10.55;4.57;;;25.10;98.60;;;;;;5071805;28;20481;-74
2021/10/19 00:58:35;;;;;;;10.73;4.07;;;25.00;98.50;;;;;;5073090;28;20030;-75
2021/10/19 01:01:02;;;;;;;10.40;4.05;;;25.00;99.10;;;;;;5073132;28;20267;-75
2021/10/19 01:03:30;;;;;;;13.68;4.47;;;25.10;99.30;;;;;;5071794;28;20020;-75
2021/10/19 01:06:01;;;;;;;9.57;3.75;;;25.20;98.90;;;;;;5072061;28;20052;-75
2021/10/19 01:08:29;;;;;;;7.65;3.90;;;25.10;98.90;;;;;;5071783;28;20032;-75
2021/10/19 01:10:57;;;;;;;10.85;4.05;;;25.50;99.20;;;;;;5073156;28;20099;-75
2021/10/19 01:13:25;;;;;;;9.05;3.80;;;25.40;98.70;;;;;;5071894;28;20035;-75
2021/10/19 01:16:07;;;;;;;10.93;4.10;;;25.70;99.40;;;;;;5071612;28;20025;-75
2021/10/19 01:18:35;;;;;;;10.88;4.00;;;25.60;98.70;;;;;;5054933;28;20440;-75
2021/10/19 01:21:03;;;;;;;11.80;4.72;;;25.70;98.60;;;;;;5071591;28;20077;-75
2021/10/19 01:23:33;;;;;;;10.30;3.70;;;25.30;99.20;;;;;;5072900;28;20020;-75
2021/10/19 01:26:06;;;;;;;9.25;3.47;;;25.40;98.90;;;;;;5071533;28;20016;-74
2021/10/19 01:28:37;;;;;;;10.18;3.75;;;25.20;98.80;;;;;;5071593;28;20032;-74
2021/10/19 01:31:06;;;;;;;10.90;3.88;;;25.00;99.00;;;;;;5072966;28;20137;-74
2021/10/19 01:33:33;;;;;;;9.63;3.83;;;25.00;99.90;;;;;;5074036;28;20099;-74
2021/10/19 01:36:01;;;;;;;9.40;4.30;;;24.90;99.60;;;;;;5075550;28;20024;-74
2021/10/19 01:38:29;;;;;;;14.77;4.07;;;24.80;99.50;;;;;;5075495;28;20400;-74
2021/10/19 01:40:58;;;;;;;10.35;4.03;;;24.60;99.50;;;;;;5075694;28;20016;-74
2021/10/19 01:43:27;;;;;;;13.30;3.78;;;24.70;99.70;;;;;;5075598;28;20362;-74
2021/10/19 01:45:57;;;;;;;9.82;3.95;;;25.00;99.50;;;;;;5077028;28;20108;-74
2021/10/19 01:48:26;;;;;;;8.95;3.45;;;25.30;99.70;;;;;;5075377;28;20021;-74
2021/10/19 01:50:53;;;;;;;9.90;3.80;;;25.50;98.70;;;;;;5075214;28;20025;-74
2021/10/19 01:53:22;;;;;;;13.80;4.50;;;25.40;98.40;;;;;;5075138;28;20374;-74
2021/10/19 01:55:49;;;;;;;9.07;4.00;;;25.40;98.70;;;;;;5075219;28;20028;-74
2021/10/19 01:58:23;;;;;;;9.80;4.00;;;25.50;98.60;;;;;;5076286;28;20111;-74
2021/10/19 02:00:51;;;;;;;8.48;3.67;;;25.50;98.50;;;;;;5075084;28;20077;-74
2021/10/19 02:03:19;;;;;;;8.48;3.50;;;25.50;98.30;;;;;;5076173;28;20381;-74
2021/10/19 02:05:49;;;;;;;10.18;4.00;;;25.50;98.30;;;;;;5074978;28;20017;-74
2021/10/19 02:08:17;;;;;;;9.27;3.58;;;25.40;98.20;;;;;;5076227;28;20081;-74
2021/10/19 02:10:44;;;;;;;12.52;4.25;;;25.60;98.60;;;;;;5074838;28;20033;-73
2021/10/19 02:13:12;;;;;;;7.68;3.55;;;25.30;99.20;;;;;;5074742;28;20027;-74
2021/10/19 02:15:40;;;;;;;7.65;3.97;;;25.20;99.10;;;;;;5074630;28;20503;-74
2021/10/19 02:18:09;;;;;;;9.43;3.83;;;25.50;99.10;;;;;;5075801;28;20052;-75
2021/10/19 02:20:37;;;;;;;14.68;4.43;;;25.10;98.80;;;;;;5076009;28;20062;-73
2021/10/19 02:23:05;;;;;;;9.77;3.33;;;25.20;98.80;;;;;;5075902;28;20477;-74
2021/10/19 02:25:32;;;;;;;8.45;3.05;;;25.20;98.70;;;;;;5075816;28;20028;-74
2021/10/19 02:28:00;;;;;;;8.73;3.25;;;25.50;98.80;;;;;;5074489;28;20024;-75
2021/10/19 02:30:30;;;;;;;;;;;25.40;98.90;;;;;;5076247;28;20097;-75
2021/10/19 02:32:58;;;;;;;8.77;3.38;;;25.60;98.20;;;;;;5075795;28;19911;-74
2021/10/19 02:35:25;;;;;;;6.80;3.67;;;25.50;98.20;;;;;;5074404;28;20044;-74
2021/10/19 02:37:57;;;;;;;10.38;3.83;;;25.70;97.70;;;;;;5075558;28;20056;-74
2021/10/19 02:40:25;;;;;;;9.35;3.42;;;25.30;97.80;;;;;;5074662;28;20397;-75
2021/10/19 02:42:52;;;;;;;8.90;3.40;;;25.50;98.30;;;;;;5075546;28;20024;-74
2021/10/19 02:45:21;;;;;;;10.18;3.65;;;25.40;98.20;;;;;;5073526;28;20442;-74
2021/10/19 02:47:48;;;;;;;15.88;4.13;;;25.10;98.60;;;;;;5074227;28;20036;-74
2021/10/19 02:50:16;;;;;;;10.95;4.15;;;25.10;99.00;;;;;;5075579;28;20389;-74
2021/10/19 02:52:43;;;;;;;8.73;3.78;;;24.80;98.90;;;;;;5075506;28;20024;-74
2021/10/19 02:55:17;;;;;;;12.40;4.80;;;24.70;99.60;;;;;;5074060;28;20059;-74
2021/10/19 02:57:45;;;;;;;6.90;3.67;;;24.40;99.90;;;;;;5075319;28;20481;-75
2021/10/19 03:00:13;;;;;;;14.50;4.70;;;24.30;99.90;;;;;;5075177;28;20146;-74
2021/10/19 03:02:41;;;;;;;12.95;4.53;;;24.10;99.90;;;;;;5074073;28;20036;-74
2021/10/19 03:05:09;;;;;;;10.38;3.97;;;24.70;99.90;;;;;;5075205;28;20028;-74
2021/10/19 03:07:36;;;;;;;11.45;4.28;;;25.30;99.00;;;;;;5073970;28;20558;-74
2021/10/19 03:10:04;;;;;;;13.30;4.50;;;25.20;98.80;;;;;;5073862;28;20024;-74
2021/10/19 03:12:31;;;;;;;12.10;4.38;;;25.30;98.40;;;;;;5074972;28;20103;-74
2021/10/19 03:14:59;;;;;;;12.30;3.95;;;25.30;98.30;;;;;;5073732;28;20050;-75
2021/10/19 03:17:26;;;;;;;9.70;3.67;;;25.00;98.50;;;;;;5074706;28;20071;-75
2021/10/19 03:19:54;;;;;;;11.75;3.33;;;24.70;99.00;;;;;;5073746;28;20021;-75
2021/10/19 03:22:21;;;;;;;8.63;3.30;;;24.20;99.70;;;;;;5074883;28;20025;-75
2021/10/19 03:24:49;;;;;;;14.90;4.25;;;23.90;99.90;;;;;;5074955;28;20021;-75
2021/10/19 03:27:16;;;;;;;11.43;3.92;;;23.30;99.90;;;;;;5074858;28;20048;-76
2021/10/19 03:29:44;;;;;;;11.55;4.00;;;23.00;99.90;;;;;;5073808;28;20393;-75
2021/10/19 03:32:11;;;;;;;13.63;4.28;;;22.60;99.90;;;;;;5074786;28;20023;-75
2021/10/19 03:34:39;;;;;;;12.85;4.55;;;23.00;99.90;;;;;;5074738;28;20032;-76
2021/10/19 03:37:07;;;;;;;12.02;3.88;;;23.20;99.90;;;;;;5073198;28;20093;-76
2021/10/19 03:39:34;;;;;;;14.25;4.60;;;23.40;99.90;;;;;;5074562;28;20099;-76
2021/10/19 03:42:02;;;;;;;10.50;3.67;;;23.10;99.90;;;;;;5074647;28;20017;-75
2021/10/19 03:44:32;;;;;;;10.02;3.80;;;23.00;99.90;;;;;;5074588;28;20024;-76
2021/10/19 03:47:00;;;;;;;13.25;4.28;;;22.90;99.90;;;;;;5074486;28;20381;-76
2021/10/19 03:49:27;;;;;;;12.88;4.65;;;22.80;99.90;;;;;;5074379;28;20021;-76
2021/10/19 03:51:55;;;;;;;10.30;4.75;;;22.40;99.90;;;;;;5073083;28;20025;-76
2021/10/19 03:54:22;;;;;;;10.50;4.30;;;22.00;99.90;;;;;;5074510;28;20074;-76
2021/10/19 03:56:49;;;;;;;13.48;4.47;;;21.90;99.90;;;;;;5071740;28;20090;-76
2021/10/19 03:59:16;;;;;;;11.30;4.35;;;21.90;99.90;;;;;;5072883;28;20130;-76
2021/10/19 04:01:44;;;;;;;9.75;4.20;;;21.80;99.90;;;;;;5074056;28;20017;-76
2021/10/19 04:04:12;;;;;;;11.20;4.20;;;21.70;99.90;;;;;;5072694;28;20024;-76
2021/10/19 04:06:40;;;;;;;11.80;4.13;;;21.20;99.90;;;;;;5073915;28;20021;-76
2021/10/19 04:09:08;;;;;;;10.82;4.38;;;21.10;99.90;;;;;;5072624;28;20020;-76
2021/10/19 04:11:35;;;;;;;10.48;4.25;;;20.90;99.90;;;;;;5072539;28;20432;-76
2021/10/19 04:14:02;;;;;;;11.02;4.20;;;20.70;99.90;;;;;;5072633;28;20020;-76
2021/10/19 04:16:30;;;;;;;10.00;4.18;;;20.50;99.90;;;;;;5073624;28;20105;-76
2021/10/19 04:18:57;;;;;;;10.88;4.20;;;20.40;99.90;;;;;;5073848;28;20028;-76
2021/10/19 04:21:24;;;;;;;15.52;5.22;;;20.60;99.90;;;;;;5073669;28;20013;-76
2021/10/19 04:23:52;;;;;;;10.63;5.10;;;20.30;99.90;;;;;;5072189;28;20050;-76
2021/10/19 04:26:19;;;;;;;13.43;5.00;;;20.40;99.90;;;;;;5073577;28;20031;-76
2021/10/19 04:28:47;;;;;;;9.57;4.78;;;20.30;99.90;;;;;;5073532;28;20036;-75
2021/10/19 04:31:15;;;;;;;10.93;5.05;;;20.20;99.90;;;;;;5073471;28;20031;-75
2021/10/19 04:33:42;;;;;;;12.65;4.90;;;19.90;99.90;;;;;;5073620;28;20024;-78
2021/10/19 04:36:10;;;;;;;13.98;5.18;;;19.80;99.90;;;;;;5073368;28;20500;-78
2021/10/19 04:38:37;;;;;;;12.95;5.25;;;19.60;99.90;;;;;;5071946;28;20033;-78
2021/10/19 04:41:05;;;;;;;11.52;5.28;;;19.30;99.90;;;;;;5073310;28;20020;-78
2021/10/19 04:43:32;;;;;;;14.98;4.82;;;19.20;99.90;;;;;;5073260;28;20021;-77
2021/10/19 04:45:59;;;;;;;11.40;5.40;;;18.90;99.90;;;;;;5071946;28;20031;-77
2021/10/19 04:48:27;;;;;;;10.15;4.30;;;18.90;99.90;;;;;;5071828;28;20025;-77
2021/10/19 04:50:55;;;;;;;15.63;5.00;;;18.80;99.90;;;;;;5071928;28;20024;-77
2021/10/19 04:53:22;;;;;;;10.43;4.30;;;18.80;99.90;;;;;;5071705;28;20052;-76
2021/10/19 04:55:50;;;;;;;8.88;5.10;;;18.50;99.90;;;;;;5073120;28;20066;-76
2021/10/19 04:58:17;;;;;;;14.20;5.05;;;18.50;99.90;;;;;;5071828;28;20028;-76
2021/10/19 05:00:47;;;;;;;13.23;4.50;;;18.50;99.90;;;;;;5071744;28;20025;-76
2021/10/19 05:03:18;;;;;;;13.03;4.80;;;18.60;99.90;;;;;;5071653;28;20465;-76
2021/10/19 05:05:45;;;;;;;11.05;4.90;;;18.40;99.90;;;;;;5071615;28;20017;-76
2021/10/19 05:08:13;;;;;;;14.35;4.75;;;18.30;99.90;;;;;;5072601;28;20043;-76
2021/10/19 05:10:42;;;;;;;8.98;4.35;;;18.10;99.90;;;;;;5071638;28;20028;-77
2021/10/19 05:13:11;;;;;;;9.25;4.07;;;18.20;99.90;;;;;;5071554;28;20500;-76
2021/10/19 05:15:38;;;;;;;9.20;4.28;;;18.10;99.90;;;;;;5071645;28;20434;-76
2021/10/19 05:18:06;;;;;;;8.80;5.25;;;17.80;99.90;;;;;;5072547;28;20037;-76
2021/10/19 05:20:36;;;;;;;8.27;4.38;;;17.70;99.90;;;;;;5072657;28;20416;-76
2021/10/19 05:23:04;;;;;;;11.52;5.78;;;18.00;99.90;;;;;;5072840;28;20399;-76
2021/10/19 05:25:31;;;;;;;12.68;5.47;;;17.70;99.90;;;;;;5071315;28;20020;-76
2021/10/19 05:27:58;;;;;;;10.68;5.72;;;17.70;99.90;;;;;;5072669;28;20021;-76
2021/10/19 05:30:26;;;;;;;13.57;5.00;;;17.90;99.90;;;;;;5072811;28;20017;-76
2021/10/19 05:32:53;;;;;;;8.65;4.68;;;17.80;99.90;;;;;;5071325;28;20448;-77
2021/10/19 05:35:21;;;;;;;8.15;4.95;;;17.70;99.90;;;;;;5072711;28;20027;-77
2021/10/19 05:37:48;;;;;;;8.02;4.93;;;17.20;99.90;;;;;;5071129;28;20465;-77
2021/10/19 05:40:15;;;;;;;7.68;5.20;;;17.10;99.90;;;;;;5071258;28;20408;-76
2021/10/19 05:42:43;;;;;;;6.22;5.03;;;17.30;99.90;;;;;;5072545;28;20017;-76
2021/10/19 05:45:10;;;;;;;10.70;5.18;;;17.50;99.90;;;;;;5071194;28;20086;-76
2021/10/19 05:47:41;;;;;;;10.02;5.45;;;17.20;99.90;;;;;;5071338;28;20081;-78
2021/10/19 05:50:09;;;;;;;7.00;5.43;;;17.10;99.90;;;;;;5072745;28;20031;-78
2021/10/19 05:52:36;;;;;;;11.30;5.35;;;17.20;99.90;;;;;;5071182;28;20024;-76
2021/10/19 05:55:04;;;;;;;7.43;5.40;;;17.10;99.90;;;;;;5071089;28;20024;-77
2021/10/19 05:57:31;;;;;;;9.05;5.00;;;17.00;99.90;;;;;;5070971;28;20489;-78
2021/10/19 05:59:59;;;;;;;8.23;5.22;;;17.10;99.90;;;;;;5072371;28;20023;-76
2021/10/19 06:02:26;;;;;;;7.60;4.78;;;17.30;99.90;;;;;;5072276;28;20020;-76
2021/10/19 06:04:53;;;;;;;8.85;4.55;;;17.20;99.90;;;;;;5072310;28;20477;-76
2021/10/19 06:07:21;;;;;;;7.65;4.72;;;17.10;99.90;;;;;;5072327;28;20454;-76
2021/10/19 06:09:48;;;;;;;5.85;5.20;;;17.20;99.90;;;;;;5071057;28;20119;-76
2021/10/19 06:12:16;;;;;;;7.60;5.68;;;17.00;99.90;;;;;;5072379;28;20103;-76
2021/10/19 06:14:44;;;;;;;9.32;5.20;;;16.80;99.90;;;;;;5072247;28;20032;-77
2021/10/19 06:17:12;;;;;;;9.05;5.43;;;16.80;99.90;;;;;;5071937;28;20044;-77
2021/10/19 06:19:40;;;;;;;10.23;4.90;;;16.90;99.90;;;;;;5054259;28;20401;-76
2021/10/19 06:22:07;;;;;;;12.82;5.63;;;16.80;99.90;;;;;;5074451;28;20052;-76
2021/10/19 06:24:35;;;;;;;11.80;5.03;;;16.70;99.90;;;;;;5075979;28;20074;-76
2021/10/19 06:27:02;;;;;;;10.88;5.45;;;16.60;99.90;;;;;;5074480;28;20024;-76
2021/10/19 06:29:29;;;;;;;10.95;5.15;;;16.60;99.90;;;;;;5075802;28;20027;-76
2021/10/19 06:31:57;;;;;;;9.65;5.35;;;16.60;99.90;;;;;;5075816;28;20049;-76
2021/10/19 06:34:25;;;;;;;10.13;5.95;;;16.60;99.90;;;;;;5078025;28;20016;-76
2021/10/19 06:36:52;;;;;;;10.63;5.10;;;16.70;99.90;;;;;;5077363;28;20563;-78
2021/10/19 06:39:20;;;;;;;10.70;5.35;;;16.60;99.90;;;;;;5083805;28;20021;-78
2021/10/19 06:41:47;;;;;;;8.75;5.20;;;16.60;99.90;;;;;;5076659;28;20070;-78
2021/10/19 06:44:16;;;;;;;9.43;5.20;;;16.70;99.90;;;;;;5078122;28;20083;-79
2021/10/19 06:46:44;;;;;;;9.07;5.82;;;16.70;99.90;;;;;;5075699;28;20447;-78
2021/10/19 06:49:12;;;;;;;6.97;6.25;;;16.40;99.90;;;;;;5079480;28;20469;-78
2021/10/19 06:51:39;;;;;;;9.75;6.60;;;16.50;99.90;;;;;;5079437;28;20031;-77
2021/10/19 06:54:06;;;;;;;12.50;7.15;;;16.40;99.90;;;;;;5081004;28;20032;-78
2021/10/19 06:56:34;;;;;;;8.48;7.18;;;16.40;99.90;;;;;;5085785;28;20051;-78
2021/10/19 06:59:01;;;;;;;11.13;7.47;;;16.50;99.90;;;;;;5088542;28;20048;-78
2021/10/19 07:01:28;;;;;;;14.82;7.50;;;16.40;99.90;;;;;;5090204;28;20098;-78
2021/10/19 07:03:56;;;;;;;8.65;6.97;;;16.40;99.90;;;;;;5093180;28;20042;-78
2021/10/19 07:06:24;;;;;;;13.32;6.70;;;16.50;99.90;;;;;;5092366;28;20035;-78
2021/10/19 07:08:53;;;;;;;12.75;6.80;;;16.40;99.90;;;;;;5086260;28;20103;-79
2021/10/19 07:11:25;;;;;;;10.43;5.82;;;16.40;99.90;;;;;;5085143;28;20451;-79
2021/10/19 07:13:55;;;;;;;12.23;6.32;;;16.30;99.90;;;;;;5086076;28;20021;-79
2021/10/19 07:16:24;;;;;;;12.18;6.90;;;16.30;99.90;;;;;;5086019;28;20134;-77
2021/10/19 07:18:52;;;;;;;11.43;7.35;;;16.30;99.90;;;;;;5077850;28;20028;-77
2021/10/19 07:21:19;;;;;;;9.40;7.22;;;16.30;99.90;;;;;;5078819;28;20028;-77
2021/10/19 07:23:46;;;;;;;9.35;6.95;;;16.30;99.90;;;;;;5075379;28;20020;-78
2021/10/19 07:26:14;;;;;;;9.60;6.60;;;16.30;99.90;;;;;;5075788;28;20021;-75
2021/10/19 07:28:41;;;;;;;6.82;5.82;;;16.40;99.90;;;;;;5076437;28;20500;-77
2021/10/19 07:31:08;;;;;;;10.55;6.50;;;16.40;99.90;;;;;;5077158;28;20025;-76
2021/10/19 07:33:37;;;;;;;7.68;6.82;;;16.30;99.90;;;;;;5075710;28;20028;-77
2021/10/19 07:36:04;;;;;;;12.55;6.18;;;16.30;99.90;;;;;;5075571;28;20087;-78
2021/10/19 07:38:32;;;;;;;11.18;6.25;;;16.30;99.90;;;;;;5073646;28;20500;-77
2021/10/19 07:40:59;;;;;;;9.80;6.20;;;16.40;99.90;;;;;;5074982;28;20021;-78
2021/10/19 07:43:27;;;;;;;9.80;6.25;;;16.20;99.90;;;;;;5075586;28;20013;-78
2021/10/19 07:45:55;;;;;;;8.85;5.18;;;16.30;99.90;;;;;;5073903;28;20021;-76
2021/10/19 07:48:22;;;;;;;7.13;5.07;;;16.30;99.90;;;;;;5073537;28;20477;-77
2021/10/19 07:50:50;;;;;;;7.70;5.32;;;16.30;99.90;;;;;;5073718;28;20024;-77
2021/10/19 07:53:18;;;;;;;7.43;5.00;;;16.20;99.90;;;;;;5073271;28;20032;-77
2021/10/19 07:55:46;;;;;;;11.45;6.10;;;16.20;99.90;;;;;;5074473;28;20077;-78
2021/10/19 07:58:13;;;;;;;9.25;5.30;;;16.20;99.90;;;;;;5077226;28;20431;-78
2021/10/19 08:00:41;;;;;;;12.23;5.20;;;16.20;99.90;;;;;;5077493;28;20469;-78
2021/10/19 08:03:08;;;;;;;8.38;5.00;;;16.20;99.90;;;;;;5074584;28;20020;-77
2021/10/19 08:05:37;;;;;;;9.23;5.30;;;16.30;99.90;;;;;;5074539;28;20012;-78
2021/10/19 08:08:09;;;;;;;7.80;5.63;;;16.30;99.90;;;;;;5073364;28;20021;-78
2021/10/19 08:10:38;;;;;;;10.05;5.90;;;16.20;99.90;;;;;;5073386;28;20021;-79
2021/10/19 08:13:08;;;;;;;9.35;6.60;;;16.20;99.90;;;;;;5076133;28;20021;-78
2021/10/19 08:15:37;;;;;;;10.02;6.78;;;16.20;99.90;;;;;;5077486;28;20028;-76
2021/10/19 08:18:05;;;;;;;10.82;6.70;;;16.20;99.90;;;;;;5074629;28;20401;-79
2021/10/19 08:20:32;;;;;;;8.77;6.30;;;16.20;99.90;;;;;;5077949;28;20020;-78
2021/10/19 08:23:00;;;;;;;7.05;5.72;;;16.20;99.90;;;;;;5077646;28;20031;-78
2021/10/19 08:25:28;;;;;;;8.45;6.00;;;16.10;99.90;;;;;;5074344;28;20481;-77
2021/10/19 08:27:56;;;;;;;11.10;6.63;;;16.10;99.90;;;;;;5072699;28;20020;-76
2021/10/19 08:30:23;;;;;;;10.20;6.50;;;16.20;99.90;;;;;;5073486;28;20020;-76
2021/10/19 08:32:52;;;;;;;9.73;5.30;;;16.20;99.90;;;;;;5073585;28;20027;-77
2021/10/19 08:35:24;;;;;;;5.72;5.20;;;16.10;99.90;;;;;;5057823;28;20029;-77
2021/10/19 08:37:53;;;;;;;7.68;5.18;;;16.00;99.90;;;;;;5074323;28;20025;-78
2021/10/19 08:40:21;;;;;;;6.80;5.05;;;16.00;99.90;;;;;;5073582;28;20021;-78
2021/10/19 08:42:51;;;;;;;6.93;4.40;;;16.00;99.90;;;;;;5074904;28;20134;-78
2021/10/19 08:45:20;;;;;;;10.60;5.25;;;16.00;99.90;;;;;;5073141;28;20027;-77
2021/10/19 08:47:49;;;;;;;9.05;5.30;;;15.90;99.90;;;;;;5071979;28;20064;-77
2021/10/19 08:50:18;;;;;;;10.20;4.80;;;15.90;99.90;;;;;;5072678;28;20182;-78
2021/10/19 08:52:48;;;;;;;6.28;5.28;;;15.90;99.90;;;;;;5077352;28;20100;-79
2021/10/19 08:55:16;;;;;;;8.80;5.13;;;15.90;99.90;;;;;;5074133;28;20489;-79
2021/10/19 08:57:44;;;;;;;14.10;5.60;;;16.00;99.90;;;;;;5072844;28;20028;-80
2021/10/19 09:00:12;;;;;;;13.93;6.07;;;15.90;99.90;;;;;;5072336;28;20029;-76
2021/10/19 09:02:48;;;;;;;8.38;5.90;;;16.10;99.90;;;;;;5071796;28;20025;-76
2021/10/19 09:05:23;;;;;;;10.43;5.57;;;16.00;99.90;;;;;;5071673;28;20025;-76
2021/10/19 09:08:14;;;;;;;11.35;5.82;;;15.90;99.90;;;;;;5071614;28;20537;-76
2021/10/19 09:10:42;;;;;;;10.60;5.60;;;15.90;99.90;;;;;;5072990;28;20017;-76
2021/10/19 09:13:17;;;;;;;7.25;5.80;;;15.90;99.90;;;;;;5072943;28;20021;-76
2021/10/19 09:15:47;;;;;;;8.30;5.55;;;15.90;99.90;;;;;;5071945;28;20020;-78
2021/10/19 09:18:17;;;;;;;5.47;4.78;;;15.80;99.90;;;;;;5072427;28;20131;-78
2021/10/19 09:20:47;;;;;;;9.80;5.70;;;15.80;99.90;;;;;;5072251;28;20366;-79
2021/10/19 09:23:18;;;;;;;8.07;5.50;;;15.80;99.90;;;;;;5056098;28;20036;-78
2021/10/19 09:25:47;;;;;;;12.45;5.75;;;15.80;99.90;;;;;;5072468;28;20027;-78
2021/10/19 09:28:16;;;;;;;9.48;5.60;;;15.80;99.90;;;;;;5074053;28;20035;-79
2021/10/19 09:30:50;;;;;;;8.80;5.35;;;15.80;99.90;;;;;;5073890;28;20025;-79
2021/10/19 09:33:21;;;;;;;7.30;4.90;;;15.80;99.90;;;;;;5071524;28;20028;-78
2021/10/19 09:35:51;;;;;;;9.13;5.07;;;15.70;99.90;;;;;;5072689;28;20031;-78
2021/10/19 09:38:20;;;;;;;5.63;4.82;;;15.60;99.90;;;;;;5071304;28;20024;-77
2021/10/19 09:40:50;;;;;;;6.72;4.88;;;15.70;99.90;;;;;;5055046;28;20061;-77
2021/10/19 09:43:20;;;;;;;9.20;5.10;;;15.70;99.90;;;;;;5071663;28;20117;-76
2021/10/19 09:45:53;;;;;;;7.50;4.53;;;15.70;99.90;;;;;;5071312;28;20024;-78
2021/10/19 09:48:32;;;;;;;7.13;4.85;;;15.70;99.90;;;;;;5071304;28;20074;-77
2021/10/19 09:51:01;;;;;;;4.97;4.47;;;15.60;99.90;;;;;;5071179;28;20024;-77
2021/10/19 09:53:29;;;;;;;5.93;4.32;;;15.60;99.90;;;;;;5071281;28;20031;-77
2021/10/19 09:55:58;;;;;;;9.43;4.97;;;15.50;99.90;;;;;;5074771;28;20573;-78
2021/10/19 09:58:25;;;;;;;4.47;4.00;;;15.40;99.90;;;;;;5075879;28;20102;-78
2021/10/19 10:00:54;;;;;;;5.65;4.30;;;15.40;99.90;;;;;;5077567;28;20031;-77
2021/10/19 10:03:23;;;;;;;6.68;4.20;;;15.40;99.90;;;;;;5077701;28;20481;-79
2021/10/19 10:05:50;;;;;;;6.50;4.20;;;15.40;99.90;;;;;;5078250;28;20021;-79
2021/10/19 10:08:23;;;;;;;5.30;4.05;;;15.30;99.90;;;;;;5078610;28;20027;-77
2021/10/19 10:10:58;;;;;;;4.70;4.30;;;15.30;99.90;;;;;;5075269;28;20030;-78
2021/10/19 10:13:26;;;;;;;5.35;4.35;;;15.40;99.90;;;;;;5058465;28;20025;-79
2021/10/19 10:15:54;;;;;;;6.13;4.07;;;15.40;99.90;;;;;;5076264;28;20024;-79
2021/10/19 10:18:34;;;;;;;5.20;4.00;;;15.50;99.90;;;;;;5074863;28;20109;-79
2021/10/19 10:21:18;;;;;;;;;;;15.40;99.90;;;;;;5075519;28;20021;-79
2021/10/19 10:23:47;;;;;;;8.55;4.53;;;15.40;99.90;;;;;;5075505;28;19912;-79
2021/10/19 10:26:30;;;;;;;7.07;4.97;;;15.40;99.90;;;;;;5075145;28;20025;-79
2021/10/19 10:29:13;;;;;;;4.88;4.32;;;15.30;99.90;;;;;;5075628;28;20050;-79
2021/10/19 10:31:52;;;;;;;6.65;3.95;;;15.30;99.90;;;;;;5075403;28;20366;-79
2021/10/19 10:34:30;;;;;;;7.30;4.40;;;15.30;99.90;;;;;;5074820;28;20459;-78
2021/10/19 10:37:09;;;;;;;5.18;4.68;;;15.30;99.90;;;;;;5074766;28;20123;-78
2021/10/19 10:39:43;;;;;;;8.23;4.10;;;15.20;99.90;;;;;;5076006;28;20020;-78
2021/10/19 10:42:11;;;;;;;3.72;3.40;;;15.20;99.90;;;;;;5074727;28;20025;-78
2021/10/19 10:44:41;;;;;;;5.10;3.40;;;15.20;99.90;;;;;;5074350;28;20029;-77
2021/10/19 10:47:10;;;;;;;4.18;3.63;;;15.20;99.90;;;;;;5075790;28;20028;-78
2021/10/19 10:49:38;;;;;;;3.95;3.47;;;15.20;99.90;;;;;;5076298;28;20032;-77
2021/10/19 10:52:16;;;;;;;5.03;3.80;;;15.20;99.90;;;;;;5074480;28;20063;-78
2021/10/19 10:54:57;;;;;;;4.05;3.33;;;15.20;99.90;;;;;;5074253;28;20052;-78
2021/10/19 10:57:25;;;;;;;4.45;3.72;;;15.10;99.90;;;;;;5075956;28;20393;-77
2021/10/19 10:59:55;;;;;;;5.00;3.90;;;15.10;99.90;;;;;;5075892;28;20020;-78
2021/10/19 11:02:26;;;;;;;6.00;3.90;;;15.20;99.90;;;;;;5075652;28;20370;-77
2021/10/19 11:04:59;;;;;;;5.75;3.90;;;15.10;99.90;;;;;;5075467;28;20039;-78
2021/10/19 11:07:34;;;;;;;4.35;3.88;;;15.00;99.90;;;;;;5073752;28;20043;-76
2021/10/19 11:10:10;;;;;;;4.65;4.25;;;15.00;99.90;;;;;;5075898;28;20027;-78
2021/10/19 11:12:38;;;;;;;4.90;4.45;;;15.00;99.90;;;;;;5076092;28;20031;-79
2021/10/19 11:15:11;;;;;;;6.40;4.50;;;14.90;99.90;;;;;;5075671;28;20024;-78
2021/10/19 11:17:52;;;;;;;4.78;4.07;;;14.90;99.90;;;;;;5075611;28;20128;-78
2021/10/19 11:20:22;;;;;;;7.25;5.20;;;14.80;99.90;;;;;;5074561;28;20021;-78
2021/10/19 11:22:50;;;;;;;4.15;3.75;;;14.80;99.90;;;;;;5075808;28;20024;-78
2021/10/19 11:25:21;;;;;;;7.40;4.57;;;14.70;99.90;;;;;;5074396;28;20025;-78
2021/10/19 11:27:51;;;;;;;4.32;3.90;;;14.60;99.90;;;;;;5074791;28;20067;-79
2021/10/19 11:30:18;;;;;;;4.40;4.00;;;14.60;99.90;;;;;;5075645;28;20020;-79
2021/10/19 11:32:46;;;;;;;4.00;3.60;;;14.50;99.90;;;;;;5074391;28;20024;-79
2021/10/19 11:35:14;;;;;;;4.60;3.58;;;14.40;99.90;;;;;;5075394;28;20071;-79
2021/10/19 11:37:41;;;;;;;3.90;3.65;;;14.40;99.90;;;;;;5075389;28;20439;-79
2021/10/19 11:40:11;;;;;;;3.90;3.60;;;14.40;99.90;;;;;;5073755;28;20024;-78
2021/10/19 11:42:45;;;;;;;4.40;4.00;;;14.30;99.90;;;;;;5075085;28;20095;-79
2021/10/19 11:45:14;;;;;;;4.10;3.78;;;14.30;99.90;;;;;;5073784;28;20017;-78
2021/10/19 11:47:53;;;;;;;3.90;3.70;;;14.20;99.90;;;;;;5073834;28;20021;-78
2021/10/19 11:50:25;;;;;;;3.53;3.35;;;14.20;99.90;;;;;;5075260;28;20017;-79
2021/10/19 11:52:53;;;;;;;3.58;3.38;;;14.10;99.90;;;;;;5075033;28;20031;-78
2021/10/19 11:55:21;;;;;;;3.65;3.38;;;14.10;99.90;;;;;;5074902;28;20508;-79
2021/10/19 11:57:51;;;;;;;3.47;3.25;;;14.10;99.90;;;;;;5073588;28;20405;-78
2021/10/19 12:00:20;;;;;;;3.75;3.50;;;14.00;99.90;;;;;;5073373;28;20020;-78
2021/10/19 12:02:56;;;;;;;3.40;3.20;;;14.00;99.90;;;;;;5074986;28;20021;-78
2021/10/19 12:05:28;;;;;;;3.00;2.90;;;14.00;99.90;;;;;;5073365;28;20384;-78
2021/10/19 12:07:58;;;;;;;3.33;3.03;;;13.90;99.90;;;;;;5073195;28;20070;-78
2021/10/19 12:10:28;;;;;;;3.63;3.35;;;13.90;99.90;;;;;;5074458;28;20044;-78
2021/10/19 12:13:11;;;;;;;3.72;3.60;;;13.90;99.90;;;;;;5056895;28;20086;-78
2021/10/19 12:15:41;;;;;;;4.25;4.00;;;13.90;99.90;;;;;;5075225;28;20081;-78
2021/10/19 12:18:19;;;;;;;3.70;3.50;;;13.90;99.90;;;;;;5073513;28;20048;-78
2021/10/19 12:20:49;;;;;;;3.78;3.53;;;13.90;99.90;;;;;;5073390;28;20025;-79
2021/10/19 12:23:18;;;;;;;3.60;3.50;;;13.90;99.90;;;;;;5074535;28;20096;-78
2021/10/19 12:25:52;;;;;;;3.83;3.60;;;13.80;99.90;;;;;;5073806;28;20035;-78
2021/10/19 12:28:27;;;;;;;3.95;3.60;;;13.80;99.90;;;;;;5074895;28;20438;-78
2021/10/19 12:30:56;;;;;;;3.70;3.47;;;13.80;99.90;;;;;;5075649;28;20092;-77
2021/10/19 12:33:25;;;;;;;3.58;3.38;;;13.70;99.90;;;;;;5073671;28;20443;-78
2021/10/19 12:35:58;;;;;;;3.60;3.40;;;13.70;99.90;;;;;;5075500;28;20020;-78
2021/10/19 12:38:38;;;;;;;3.80;3.50;;;13.70;99.90;;;;;;5075165;28;20504;-78
2021/10/19 12:41:18;;;;;;;3.80;3.50;;;13.60;99.90;;;;;;5073587;28;20112;-79
2021/10/19 12:43:48;;;;;;;3.95;3.65;;;13.70;99.90;;;;;;5073757;28;20020;-79
2021/10/19 12:46:18;;;;;;;3.57;3.47;;;13.60;99.90;;;;;;5075572;28;20092;-79
2021/10/19 12:48:46;;;;;;;3.72;3.55;;;13.60;99.90;;;;;;5074701;28;20070;-78
2021/10/19 12:51:16;;;;;;;3.95;3.70;;;13.60;99.90;;;;;;5075149;28;20028;-79
2021/10/19 12:53:49;;;;;;;3.70;3.50;;;13.60;99.90;;;;;;5075441;28;20025;-78